sensor_id;sensor_type;location;lat;lon;timestamp;P1;durP1;ratioP1;P2;durP2;ratioP2
16979;SDS011;42288;52.182;21.156;2023-05-23T00:01:20;11.43;;;6.87;;
16979;SDS011;42288;52.182;21.156;2023-05-23T00:03:46;12.90;;;7.10;;
16979;SDS011;42288;52.182;21.156;2023-05-23T00:06:13;15.47;;;8.33;;
16979;SDS011;42288;52.182;21.156;2023-05-23T00:08:38;16.77;;;7.60;;
16979;SDS011;42288;52.182;21.156;2023-05-23T00:11:04;14.13;;;7.73;;
16979;SDS011;42288;52.182;21.156;2023-05-23T00:13:30;22.63;;;7.77;;
16979;SDS011;42288;52.182;21.156;2023-05-23T00:15:58;22.73;;;7.90;;
16979;SDS011;42288;52.182;21.156;2023-05-23T00:18:24;16.70;;;7.70;;
16979;SDS011;42288;52.182;21.156;2023-05-23T00:20:50;19.03;;;8.07;;
16979;SDS011;42288;52.182;21.156;2023-05-23T00:23:15;18.57;;;8.60;;
16979;SDS011;42288;52.182;21.156;2023-05-23T00:25:45;15.60;;;8.10;;
16979;SDS011;42288;52.182;21.156;2023-05-23T00:28:16;13.40;;;7.33;;
16979;SDS011;42288;52.182;21.156;2023-05-23T00:30:42;16.53;;;8.30;;
16979;SDS011;42288;52.182;21.156;2023-05-23T00:33:08;18.57;;;7.70;;
16979;SDS011;42288;52.182;21.156;2023-05-23T00:35:34;14.90;;;7.50;;
16979;SDS011;42288;52.182;21.156;2023-05-23T00:37:59;18.23;;;7.87;;
16979;SDS011;42288;52.182;21.156;2023-05-23T00:40:26;14.70;;;7.50;;
16979;SDS011;42288;52.182;21.156;2023-05-23T00:42:52;17.00;;;7.60;;
16979;SDS011;42288;52.182;21.156;2023-05-23T00:45:17;14.57;;;7.63;;
16979;SDS011;42288;52.182;21.156;2023-05-23T00:47:43;14.90;;;8.07;;
16979;SDS011;42288;52.182;21.156;2023-05-23T00:50:11;16.10;;;7.77;;
16979;SDS011;42288;52.182;21.156;2023-05-23T00:52:41;13.90;;;7.83;;
16979;SDS011;42288;52.182;21.156;2023-05-23T00:55:08;13.63;;;7.87;;
16979;SDS011;42288;52.182;21.156;2023-05-23T00:57:34;14.93;;;7.00;;
16979;SDS011;42288;52.182;21.156;2023-05-23T01:00:04;13.23;;;7.67;;
16979;SDS011;42288;52.182;21.156;2023-05-23T01:02:37;13.33;;;7.30;;
16979;SDS011;42288;52.182;21.156;2023-05-23T01:05:07;12.17;;;6.93;;
16979;SDS011;42288;52.182;21.156;2023-05-23T01:07:34;13.10;;;7.30;;
16979;SDS011;42288;52.182;21.156;2023-05-23T01:10:00;13.97;;;7.27;;
16979;SDS011;42288;52.182;21.156;2023-05-23T01:12:33;14.37;;;7.33;;
16979;SDS011;42288;52.182;21.156;2023-05-23T01:15:49;14.00;;;7.23;;
16979;SDS011;42288;52.182;21.156;2023-05-23T01:18:41;19.87;;;7.40;;
16979;SDS011;42288;52.182;21.156;2023-05-23T01:21:22;16.73;;;7.93;;
16979;SDS011;42288;52.182;21.156;2023-05-23T01:26:43;11.17;;;7.07;;
16979;SDS011;42288;52.182;21.156;2023-05-23T01:29:27;13.63;;;7.37;;
16979;SDS011;42288;52.182;21.156;2023-05-23T01:31:56;15.90;;;7.30;;
16979;SDS011;42288;52.182;21.156;2023-05-23T01:34:24;18.50;;;8.03;;
16979;SDS011;42288;52.182;21.156;2023-05-23T01:36:52;16.70;;;7.17;;
16979;SDS011;42288;52.182;21.156;2023-05-23T01:39:19;17.57;;;7.40;;
16979;SDS011;42288;52.182;21.156;2023-05-23T01:41:46;12.80;;;6.63;;
16979;SDS011;42288;52.182;21.156;2023-05-23T01:44:12;13.60;;;7.30;;
16979;SDS011;42288;52.182;21.156;2023-05-23T01:46:38;13.97;;;7.37;;
16979;SDS011;42288;52.182;21.156;2023-05-23T01:49:06;14.37;;;7.87;;
16979;SDS011;42288;52.182;21.156;2023-05-23T01:51:34;20.00;;;8.27;;
16979;SDS011;42288;52.182;21.156;2023-05-23T01:54:01;13.50;;;7.10;;
16979;SDS011;42288;52.182;21.156;2023-05-23T01:56:27;12.67;;;7.60;;
16979;SDS011;42288;52.182;21.156;2023-05-23T01:58:52;11.97;;;6.80;;
16979;SDS011;42288;52.182;21.156;2023-05-23T02:01:18;15.67;;;6.77;;
16979;SDS011;42288;52.182;21.156;2023-05-23T02:03:44;12.60;;;6.90;;
16979;SDS011;42288;52.182;21.156;2023-05-23T02:06:10;13.87;;;7.60;;
16979;SDS011;42288;52.182;21.156;2023-05-23T02:08:36;12.63;;;7.00;;
16979;SDS011;42288;52.182;21.156;2023-05-23T02:11:02;13.10;;;7.00;;
16979;SDS011;42288;52.182;21.156;2023-05-23T02:13:27;13.93;;;6.93;;
16979;SDS011;42288;52.182;21.156;2023-05-23T02:15:53;11.50;;;6.50;;
16979;SDS011;42288;52.182;21.156;2023-05-23T02:18:19;11.27;;;6.73;;
16979;SDS011;42288;52.182;21.156;2023-05-23T02:20:44;12.80;;;7.03;;
16979;SDS011;42288;52.182;21.156;2023-05-23T02:23:10;14.97;;;7.07;;
16979;SDS011;42288;52.182;21.156;2023-05-23T02:25:36;14.83;;;6.93;;
16979;SDS011;42288;52.182;21.156;2023-05-23T02:28:02;12.93;;;7.20;;
16979;SDS011;42288;52.182;21.156;2023-05-23T02:30:27;10.37;;;6.70;;
16979;SDS011;42288;52.182;21.156;2023-05-23T02:32:53;13.23;;;7.00;;
16979;SDS011;42288;52.182;21.156;2023-05-23T02:35:19;11.57;;;7.10;;
16979;SDS011;42288;52.182;21.156;2023-05-23T02:37:44;11.63;;;6.83;;
16979;SDS011;42288;52.182;21.156;2023-05-23T02:40:10;13.53;;;7.50;;
16979;SDS011;42288;52.182;21.156;2023-05-23T02:42:36;13.33;;;7.90;;
16979;SDS011;42288;52.182;21.156;2023-05-23T02:45:01;16.53;;;7.83;;
16979;SDS011;42288;52.182;21.156;2023-05-23T02:47:27;11.73;;;6.67;;
16979;SDS011;42288;52.182;21.156;2023-05-23T02:49:53;13.77;;;7.60;;
16979;SDS011;42288;52.182;21.156;2023-05-23T02:52:18;12.37;;;7.00;;
16979;SDS011;42288;52.182;21.156;2023-05-23T02:54:44;13.87;;;7.50;;
16979;SDS011;42288;52.182;21.156;2023-05-23T02:57:10;12.93;;;7.07;;
16979;SDS011;42288;52.182;21.156;2023-05-23T02:59:36;10.90;;;6.50;;
16979;SDS011;42288;52.182;21.156;2023-05-23T03:02:01;13.33;;;6.27;;
16979;SDS011;42288;52.182;21.156;2023-05-23T03:04:27;12.47;;;6.80;;
16979;SDS011;42288;52.182;21.156;2023-05-23T03:06:53;13.00;;;7.47;;
16979;SDS011;42288;52.182;21.156;2023-05-23T03:09:19;11.70;;;6.50;;
16979;SDS011;42288;52.182;21.156;2023-05-23T03:11:44;10.97;;;6.73;;
16979;SDS011;42288;52.182;21.156;2023-05-23T03:14:10;10.47;;;6.90;;
16979;SDS011;42288;52.182;21.156;2023-05-23T03:16:36;14.07;;;8.03;;
16979;SDS011;42288;52.182;21.156;2023-05-23T03:19:02;14.13;;;7.17;;
16979;SDS011;42288;52.182;21.156;2023-05-23T03:21:28;11.10;;;6.70;;
16979;SDS011;42288;52.182;21.156;2023-05-23T03:23:55;11.43;;;6.80;;
16979;SDS011;42288;52.182;21.156;2023-05-23T03:26:21;10.07;;;6.40;;
16979;SDS011;42288;52.182;21.156;2023-05-23T03:28:48;11.43;;;6.17;;
16979;SDS011;42288;52.182;21.156;2023-05-23T03:31:15;11.90;;;7.33;;
16979;SDS011;42288;52.182;21.156;2023-05-23T03:33:40;13.27;;;6.80;;
16979;SDS011;42288;52.182;21.156;2023-05-23T03:36:06;13.30;;;6.97;;
16979;SDS011;42288;52.182;21.156;2023-05-23T03:38:32;11.33;;;6.40;;
16979;SDS011;42288;52.182;21.156;2023-05-23T03:40:57;12.63;;;6.90;;
16979;SDS011;42288;52.182;21.156;2023-05-23T03:43:23;16.40;;;6.73;;
16979;SDS011;42288;52.182;21.156;2023-05-23T03:45:48;13.37;;;6.90;;
16979;SDS011;42288;52.182;21.156;2023-05-23T03:48:14;11.53;;;6.43;;
16979;SDS011;42288;52.182;21.156;2023-05-23T03:50:40;10.87;;;6.20;;
16979;SDS011;42288;52.182;21.156;2023-05-23T03:53:06;9.90;;;7.03;;
16979;SDS011;42288;52.182;21.156;2023-05-23T03:55:32;12.43;;;6.80;;
16979;SDS011;42288;52.182;21.156;2023-05-23T03:57:58;11.50;;;6.83;;
16979;SDS011;42288;52.182;21.156;2023-05-23T04:00:23;10.87;;;7.17;;
16979;SDS011;42288;52.182;21.156;2023-05-23T04:02:50;11.90;;;7.07;;
16979;SDS011;42288;52.182;21.156;2023-05-23T04:05:16;11.93;;;6.50;;
16979;SDS011;42288;52.182;21.156;2023-05-23T04:07:41;11.90;;;6.30;;
16979;SDS011;42288;52.182;21.156;2023-05-23T04:10:08;13.50;;;6.67;;
16979;SDS011;42288;52.182;21.156;2023-05-23T04:12:34;10.77;;;6.33;;
16979;SDS011;42288;52.182;21.156;2023-05-23T04:15:00;12.53;;;6.30;;
16979;SDS011;42288;52.182;21.156;2023-05-23T04:17:26;11.33;;;6.07;;
16979;SDS011;42288;52.182;21.156;2023-05-23T04:19:53;9.07;;;5.83;;
16979;SDS011;42288;52.182;21.156;2023-05-23T04:22:19;9.93;;;6.17;;
16979;SDS011;42288;52.182;21.156;2023-05-23T04:24:45;10.63;;;6.23;;
16979;SDS011;42288;52.182;21.156;2023-05-23T04:27:10;11.17;;;6.80;;
16979;SDS011;42288;52.182;21.156;2023-05-23T04:29:37;12.37;;;7.13;;
16979;SDS011;42288;52.182;21.156;2023-05-23T04:32:03;14.23;;;5.83;;
16979;SDS011;42288;52.182;21.156;2023-05-23T04:34:30;11.37;;;6.57;;
16979;SDS011;42288;52.182;21.156;2023-05-23T04:36:57;9.90;;;6.23;;
16979;SDS011;42288;52.182;21.156;2023-05-23T04:39:26;10.23;;;5.83;;
16979;SDS011;42288;52.182;21.156;2023-05-23T04:41:55;11.53;;;6.70;;
16979;SDS011;42288;52.182;21.156;2023-05-23T04:44:22;9.77;;;6.43;;
16979;SDS011;42288;52.182;21.156;2023-05-23T04:46:47;16.00;;;6.33;;
16979;SDS011;42288;52.182;21.156;2023-05-23T04:49:14;13.53;;;6.23;;
16979;SDS011;42288;52.182;21.156;2023-05-23T04:51:40;8.27;;;5.30;;
16979;SDS011;42288;52.182;21.156;2023-05-23T04:54:06;11.13;;;6.17;;
16979;SDS011;42288;52.182;21.156;2023-05-23T04:56:32;12.33;;;4.97;;
16979;SDS011;42288;52.182;21.156;2023-05-23T04:58:57;8.73;;;5.23;;
16979;SDS011;42288;52.182;21.156;2023-05-23T05:01:23;9.00;;;5.33;;
16979;SDS011;42288;52.182;21.156;2023-05-23T05:03:49;10.33;;;6.07;;
16979;SDS011;42288;52.182;21.156;2023-05-23T05:06:15;9.03;;;5.00;;
16979;SDS011;42288;52.182;21.156;2023-05-23T05:08:42;8.47;;;5.00;;
16979;SDS011;42288;52.182;21.156;2023-05-23T05:11:08;8.57;;;5.20;;
16979;SDS011;42288;52.182;21.156;2023-05-23T05:13:34;18.17;;;5.27;;
16979;SDS011;42288;52.182;21.156;2023-05-23T05:16:00;10.30;;;5.20;;
16979;SDS011;42288;52.182;21.156;2023-05-23T05:18:26;9.03;;;5.00;;
16979;SDS011;42288;52.182;21.156;2023-05-23T05:20:52;7.50;;;4.90;;
16979;SDS011;42288;52.182;21.156;2023-05-23T05:23:18;7.20;;;4.70;;
16979;SDS011;42288;52.182;21.156;2023-05-23T05:25:44;8.93;;;4.60;;
16979;SDS011;42288;52.182;21.156;2023-05-23T05:28:10;9.30;;;4.90;;
16979;SDS011;42288;52.182;21.156;2023-05-23T05:30:36;10.13;;;4.83;;
16979;SDS011;42288;52.182;21.156;2023-05-23T05:33:02;8.93;;;4.07;;
16979;SDS011;42288;52.182;21.156;2023-05-23T05:35:31;8.30;;;4.73;;
16979;SDS011;42288;52.182;21.156;2023-05-23T05:37:58;8.73;;;4.43;;
16979;SDS011;42288;52.182;21.156;2023-05-23T05:40:33;7.97;;;4.87;;
16979;SDS011;42288;52.182;21.156;2023-05-23T05:42:58;7.63;;;4.20;;
16979;SDS011;42288;52.182;21.156;2023-05-23T05:45:24;10.20;;;5.47;;
16979;SDS011;42288;52.182;21.156;2023-05-23T05:47:50;13.27;;;4.90;;
16979;SDS011;42288;52.182;21.156;2023-05-23T05:50:15;11.70;;;4.50;;
16979;SDS011;42288;52.182;21.156;2023-05-23T05:52:41;9.50;;;4.33;;
16979;SDS011;42288;52.182;21.156;2023-05-23T05:55:11;8.73;;;4.10;;
16979;SDS011;42288;52.182;21.156;2023-05-23T05:57:37;10.43;;;4.83;;
16979;SDS011;42288;52.182;21.156;2023-05-23T06:00:07;13.27;;;4.50;;
16979;SDS011;42288;52.182;21.156;2023-05-23T06:02:38;13.83;;;4.50;;
16979;SDS011;42288;52.182;21.156;2023-05-23T06:05:08;6.00;;;3.90;;
16979;SDS011;42288;52.182;21.156;2023-05-23T06:07:37;10.73;;;4.40;;
16979;SDS011;42288;52.182;21.156;2023-05-23T06:10:03;9.67;;;4.23;;
16979;SDS011;42288;52.182;21.156;2023-05-23T06:12:30;6.83;;;4.00;;
16979;SDS011;42288;52.182;21.156;2023-05-23T06:14:55;9.20;;;3.90;;
16979;SDS011;42288;52.182;21.156;2023-05-23T06:17:21;6.63;;;3.90;;
16979;SDS011;42288;52.182;21.156;2023-05-23T06:19:46;7.17;;;4.40;;
16979;SDS011;42288;52.182;21.156;2023-05-23T06:22:12;9.73;;;4.17;;
16979;SDS011;42288;52.182;21.156;2023-05-23T06:24:38;7.10;;;3.83;;
16979;SDS011;42288;52.182;21.156;2023-05-23T06:27:03;11.23;;;4.67;;
16979;SDS011;42288;52.182;21.156;2023-05-23T06:29:29;6.33;;;3.37;;
16979;SDS011;42288;52.182;21.156;2023-05-23T06:31:55;6.77;;;3.50;;
16979;SDS011;42288;52.182;21.156;2023-05-23T06:34:21;10.03;;;4.20;;
16979;SDS011;42288;52.182;21.156;2023-05-23T06:36:47;5.77;;;3.90;;
16979;SDS011;42288;52.182;21.156;2023-05-23T06:39:13;8.87;;;4.10;;
16979;SDS011;42288;52.182;21.156;2023-05-23T06:41:39;5.57;;;3.77;;
16979;SDS011;42288;52.182;21.156;2023-05-23T06:44:04;8.43;;;3.90;;
16979;SDS011;42288;52.182;21.156;2023-05-23T06:46:30;7.63;;;3.37;;
16979;SDS011;42288;52.182;21.156;2023-05-23T06:48:56;6.50;;;3.40;;
16979;SDS011;42288;52.182;21.156;2023-05-23T06:51:22;9.43;;;4.00;;
16979;SDS011;42288;52.182;21.156;2023-05-23T06:53:47;5.07;;;3.43;;
16979;SDS011;42288;52.182;21.156;2023-05-23T06:56:13;5.73;;;3.30;;
16979;SDS011;42288;52.182;21.156;2023-05-23T06:58:39;15.23;;;4.17;;
16979;SDS011;42288;52.182;21.156;2023-05-23T07:01:05;8.97;;;3.60;;
16979;SDS011;42288;52.182;21.156;2023-05-23T07:03:30;7.03;;;3.40;;
16979;SDS011;42288;52.182;21.156;2023-05-23T07:05:56;4.70;;;3.03;;
16979;SDS011;42288;52.182;21.156;2023-05-23T07:08:22;5.70;;;2.80;;
16979;SDS011;42288;52.182;21.156;2023-05-23T07:10:47;7.43;;;3.20;;
16979;SDS011;42288;52.182;21.156;2023-05-23T07:13:13;7.87;;;3.00;;
16979;SDS011;42288;52.182;21.156;2023-05-23T07:15:39;7.27;;;2.97;;
16979;SDS011;42288;52.182;21.156;2023-05-23T07:18:04;6.73;;;3.23;;
16979;SDS011;42288;52.182;21.156;2023-05-23T07:20:31;7.70;;;2.87;;
16979;SDS011;42288;52.182;21.156;2023-05-23T07:22:58;5.53;;;2.93;;
16979;SDS011;42288;52.182;21.156;2023-05-23T07:25:24;4.87;;;3.13;;
16979;SDS011;42288;52.182;21.156;2023-05-23T07:27:50;6.83;;;3.30;;
16979;SDS011;42288;52.182;21.156;2023-05-23T07:30:18;14.60;;;3.40;;
16979;SDS011;42288;52.182;21.156;2023-05-23T07:32:45;5.70;;;2.70;;
16979;SDS011;42288;52.182;21.156;2023-05-23T07:35:12;3.47;;;2.37;;
16979;SDS011;42288;52.182;21.156;2023-05-23T07:37:37;5.27;;;2.50;;
16979;SDS011;42288;52.182;21.156;2023-05-23T07:40:03;5.87;;;2.50;;
16979;SDS011;42288;52.182;21.156;2023-05-23T07:42:29;5.77;;;2.80;;
16979;SDS011;42288;52.182;21.156;2023-05-23T07:44:55;6.73;;;2.67;;
16979;SDS011;42288;52.182;21.156;2023-05-23T07:47:21;4.57;;;2.70;;
16979;SDS011;42288;52.182;21.156;2023-05-23T07:49:48;9.23;;;2.73;;
16979;SDS011;42288;52.182;21.156;2023-05-23T07:52:15;6.82;;;2.67;;
16979;SDS011;42288;52.182;21.156;2023-05-23T07:54:41;3.83;;;2.80;;
16979;SDS011;42288;52.182;21.156;2023-05-23T07:57:07;4.00;;;2.85;;
16979;SDS011;42288;52.182;21.156;2023-05-23T07:59:34;4.18;;;2.33;;
16979;SDS011;42288;52.182;21.156;2023-05-23T08:02:00;6.27;;;2.60;;
16979;SDS011;42288;52.182;21.156;2023-05-23T08:04:26;5.60;;;2.45;;
16979;SDS011;42288;52.182;21.156;2023-05-23T08:06:52;6.80;;;2.85;;
16979;SDS011;42288;52.182;21.156;2023-05-23T08:09:19;4.80;;;2.70;;
16979;SDS011;42288;52.182;21.156;2023-05-23T08:11:45;5.70;;;2.58;;
16979;SDS011;42288;52.182;21.156;2023-05-23T08:14:10;8.27;;;2.70;;
16979;SDS011;42288;52.182;21.156;2023-05-23T08:16:36;3.90;;;2.50;;
16979;SDS011;42288;52.182;21.156;2023-05-23T08:19:02;9.77;;;2.70;;
16979;SDS011;42288;52.182;21.156;2023-05-23T08:21:28;4.07;;;2.80;;
16979;SDS011;42288;52.182;21.156;2023-05-23T08:23:53;6.97;;;2.80;;
16979;SDS011;42288;52.182;21.156;2023-05-23T08:26:19;7.03;;;2.50;;
16979;SDS011;42288;52.182;21.156;2023-05-23T08:28:45;4.32;;;2.42;;
16979;SDS011;42288;52.182;21.156;2023-05-23T08:31:11;5.47;;;2.65;;
16979;SDS011;42288;52.182;21.156;2023-05-23T08:33:36;5.45;;;2.28;;
16979;SDS011;42288;52.182;21.156;2023-05-23T08:36:02;3.47;;;2.38;;
16979;SDS011;42288;52.182;21.156;2023-05-23T08:38:28;5.60;;;2.47;;
16979;SDS011;42288;52.182;21.156;2023-05-23T08:40:53;3.15;;;1.95;;
16979;SDS011;42288;52.182;21.156;2023-05-23T08:43:24;5.50;;;2.60;;
16979;SDS011;42288;52.182;21.156;2023-05-23T08:45:50;4.20;;;2.40;;
16979;SDS011;42288;52.182;21.156;2023-05-23T08:48:16;4.90;;;2.33;;
16979;SDS011;42288;52.182;21.156;2023-05-23T08:50:45;8.07;;;2.65;;
16979;SDS011;42288;52.182;21.156;2023-05-23T08:53:14;5.45;;;1.90;;
16979;SDS011;42288;52.182;21.156;2023-05-23T08:55:44;4.93;;;2.10;;
16979;SDS011;42288;52.182;21.156;2023-05-23T08:58:12;5.05;;;2.35;;
16979;SDS011;42288;52.182;21.156;2023-05-23T09:00:39;16.83;;;2.70;;
16979;SDS011;42288;52.182;21.156;2023-05-23T09:03:06;5.87;;;2.30;;
16979;SDS011;42288;52.182;21.156;2023-05-23T09:05:33;5.93;;;2.30;;
16979;SDS011;42288;52.182;21.156;2023-05-23T09:07:58;4.78;;;2.10;;
16979;SDS011;42288;52.182;21.156;2023-05-23T09:10:24;3.00;;;2.22;;
16979;SDS011;42288;52.182;21.156;2023-05-23T09:12:53;4.55;;;2.70;;
16979;SDS011;42288;52.182;21.156;2023-05-23T09:15:19;5.50;;;2.40;;
16979;SDS011;42288;52.182;21.156;2023-05-23T09:17:46;6.53;;;2.40;;
16979;SDS011;42288;52.182;21.156;2023-05-23T09:20:12;4.03;;;2.22;;
16979;SDS011;42288;52.182;21.156;2023-05-23T09:22:40;4.50;;;2.50;;
16979;SDS011;42288;52.182;21.156;2023-05-23T09:25:09;4.75;;;2.05;;
16979;SDS011;42288;52.182;21.156;2023-05-23T09:27:35;3.75;;;2.15;;
16979;SDS011;42288;52.182;21.156;2023-05-23T09:30:07;7.47;;;2.47;;
16979;SDS011;42288;52.182;21.156;2023-05-23T09:32:34;3.85;;;2.10;;
16979;SDS011;42288;52.182;21.156;2023-05-23T09:35:01;6.75;;;2.78;;
16979;SDS011;42288;52.182;21.156;2023-05-23T09:37:31;4.82;;;2.42;;
16979;SDS011;42288;52.182;21.156;2023-05-23T09:40:06;3.83;;;2.38;;
16979;SDS011;42288;52.182;21.156;2023-05-23T09:42:46;4.28;;;2.38;;
16979;SDS011;42288;52.182;21.156;2023-05-23T09:45:12;4.30;;;2.50;;
16979;SDS011;42288;52.182;21.156;2023-05-23T09:47:47;12.25;;;2.65;;
16979;SDS011;42288;52.182;21.156;2023-05-23T09:50:15;6.10;;;2.60;;
16979;SDS011;42288;52.182;21.156;2023-05-23T09:52:41;6.80;;;2.53;;
16979;SDS011;42288;52.182;21.156;2023-05-23T09:55:06;4.20;;;2.55;;
16979;SDS011;42288;52.182;21.156;2023-05-23T09:57:36;4.53;;;2.35;;
16979;SDS011;42288;52.182;21.156;2023-05-23T10:00:06;5.47;;;2.47;;
16979;SDS011;42288;52.182;21.156;2023-05-23T10:08:14;5.50;;;2.28;;
16979;SDS011;42288;52.182;21.156;2023-05-23T10:13:38;3.13;;;2.13;;
16979;SDS011;42288;52.182;21.156;2023-05-23T10:16:12;4.82;;;2.58;;
16979;SDS011;42288;52.182;21.156;2023-05-23T10:18:43;8.38;;;2.60;;
16979;SDS011;42288;52.182;21.156;2023-05-23T10:21:14;5.65;;;2.50;;
16979;SDS011;42288;52.182;21.156;2023-05-23T10:23:44;4.35;;;2.30;;
16979;SDS011;42288;52.182;21.156;2023-05-23T10:26:12;5.28;;;2.33;;
16979;SDS011;42288;52.182;21.156;2023-05-23T10:28:38;6.10;;;2.55;;
16979;SDS011;42288;52.182;21.156;2023-05-23T10:31:04;4.97;;;2.17;;
16979;SDS011;42288;52.182;21.156;2023-05-23T10:33:33;6.85;;;2.38;;
16979;SDS011;42288;52.182;21.156;2023-05-23T10:36:10;4.65;;;2.90;;
16979;SDS011;42288;52.182;21.156;2023-05-23T10:41:27;4.53;;;2.22;;
16979;SDS011;42288;52.182;21.156;2023-05-23T10:52:10;3.53;;;2.35;;
16979;SDS011;42288;52.182;21.156;2023-05-23T10:54:41;3.67;;;2.35;;
16979;SDS011;42288;52.182;21.156;2023-05-23T10:57:08;5.30;;;2.75;;
16979;SDS011;42288;52.182;21.156;2023-05-23T10:59:37;3.53;;;2.50;;
16979;SDS011;42288;52.182;21.156;2023-05-23T11:02:05;4.18;;;2.42;;
16979;SDS011;42288;52.182;21.156;2023-05-23T11:04:38;5.90;;;2.65;;
16979;SDS011;42288;52.182;21.156;2023-05-23T11:07:04;8.63;;;3.38;;
16979;SDS011;42288;52.182;21.156;2023-05-23T11:09:29;6.65;;;2.78;;
16979;SDS011;42288;52.182;21.156;2023-05-23T11:12:05;2.50;;;2.30;;
16979;SDS011;42288;52.182;21.156;2023-05-23T11:14:32;6.15;;;3.00;;
16979;SDS011;42288;52.182;21.156;2023-05-23T11:17:15;7.00;;;3.05;;
16979;SDS011;42288;52.182;21.156;2023-05-23T11:19:54;5.10;;;3.08;;
16979;SDS011;42288;52.182;21.156;2023-05-23T11:22:27;6.45;;;2.75;;
16979;SDS011;42288;52.182;21.156;2023-05-23T11:24:56;4.72;;;3.83;;
16979;SDS011;42288;52.182;21.156;2023-05-23T11:27:30;26.25;;;3.35;;
16979;SDS011;42288;52.182;21.156;2023-05-23T11:30:06;8.32;;;3.03;;
16979;SDS011;42288;52.182;21.156;2023-05-23T11:32:34;3.78;;;2.55;;
16979;SDS011;42288;52.182;21.156;2023-05-23T11:35:01;6.65;;;3.47;;
16979;SDS011;42288;52.182;21.156;2023-05-23T11:37:28;5.88;;;2.75;;
16979;SDS011;42288;52.182;21.156;2023-05-23T11:39:55;5.32;;;2.75;;
16979;SDS011;42288;52.182;21.156;2023-05-23T11:42:21;6.95;;;3.63;;
16979;SDS011;42288;52.182;21.156;2023-05-23T11:44:48;14.88;;;3.65;;
16979;SDS011;42288;52.182;21.156;2023-05-23T11:47:17;14.18;;;4.18;;
16979;SDS011;42288;52.182;21.156;2023-05-23T11:49:46;7.90;;;3.88;;
16979;SDS011;42288;52.182;21.156;2023-05-23T11:52:12;10.52;;;3.22;;
16979;SDS011;42288;52.182;21.156;2023-05-23T11:54:41;7.75;;;3.13;;
16979;SDS011;42288;52.182;21.156;2023-05-23T11:57:07;4.43;;;2.97;;
16979;SDS011;42288;52.182;21.156;2023-05-23T11:59:33;5.55;;;3.00;;
16979;SDS011;42288;52.182;21.156;2023-05-23T12:02:00;5.75;;;3.03;;
16979;SDS011;42288;52.182;21.156;2023-05-23T12:04:27;8.98;;;3.25;;
16979;SDS011;42288;52.182;21.156;2023-05-23T12:06:53;4.70;;;2.50;;
16979;SDS011;42288;52.182;21.156;2023-05-23T12:09:19;3.80;;;2.78;;
16979;SDS011;42288;52.182;21.156;2023-05-23T12:11:45;4.78;;;2.60;;
16979;SDS011;42288;52.182;21.156;2023-05-23T12:14:13;6.00;;;2.67;;
16979;SDS011;42288;52.182;21.156;2023-05-23T12:16:42;4.85;;;3.20;;
16979;SDS011;42288;52.182;21.156;2023-05-23T12:19:12;8.25;;;3.05;;
16979;SDS011;42288;52.182;21.156;2023-05-23T12:21:42;5.75;;;2.95;;
16979;SDS011;42288;52.182;21.156;2023-05-23T12:26:51;5.13;;;2.63;;
16979;SDS011;42288;52.182;21.156;2023-05-23T12:29:27;7.90;;;3.08;;
16979;SDS011;42288;52.182;21.156;2023-05-23T12:31:53;6.82;;;3.13;;
16979;SDS011;42288;52.182;21.156;2023-05-23T12:34:19;4.70;;;2.97;;
16979;SDS011;42288;52.182;21.156;2023-05-23T12:36:46;16.08;;;3.28;;
16979;SDS011;42288;52.182;21.156;2023-05-23T12:39:13;6.95;;;3.22;;
16979;SDS011;42288;52.182;21.156;2023-05-23T12:41:43;8.25;;;2.75;;
16979;SDS011;42288;52.182;21.156;2023-05-23T12:44:09;6.88;;;2.85;;
16979;SDS011;42288;52.182;21.156;2023-05-23T12:46:39;3.63;;;2.63;;
16979;SDS011;42288;52.182;21.156;2023-05-23T12:49:04;4.22;;;3.35;;
16979;SDS011;42288;52.182;21.156;2023-05-23T12:51:30;7.00;;;3.00;;
16979;SDS011;42288;52.182;21.156;2023-05-23T12:53:55;14.60;;;3.65;;
16979;SDS011;42288;52.182;21.156;2023-05-23T12:56:22;7.78;;;2.95;;
16979;SDS011;42288;52.182;21.156;2023-05-23T12:58:47;3.47;;;2.60;;
16979;SDS011;42288;52.182;21.156;2023-05-23T13:01:13;4.90;;;3.00;;
16979;SDS011;42288;52.182;21.156;2023-05-23T13:03:38;11.90;;;3.20;;
16979;SDS011;42288;52.182;21.156;2023-05-23T13:06:04;5.57;;;3.20;;
16979;SDS011;42288;52.182;21.156;2023-05-23T13:08:30;6.32;;;3.08;;
16979;SDS011;42288;52.182;21.156;2023-05-23T13:10:56;6.28;;;3.05;;
16979;SDS011;42288;52.182;21.156;2023-05-23T13:13:23;5.33;;;2.90;;
16979;SDS011;42288;52.182;21.156;2023-05-23T13:15:49;6.72;;;3.03;;
16979;SDS011;42288;52.182;21.156;2023-05-23T13:18:15;4.28;;;2.80;;
16979;SDS011;42288;52.182;21.156;2023-05-23T13:20:41;5.68;;;3.05;;
16979;SDS011;42288;52.182;21.156;2023-05-23T13:23:06;9.63;;;2.60;;
16979;SDS011;42288;52.182;21.156;2023-05-23T13:25:33;5.32;;;3.38;;
16979;SDS011;42288;52.182;21.156;2023-05-23T13:27:59;7.78;;;2.80;;
16979;SDS011;42288;52.182;21.156;2023-05-23T13:30:26;10.80;;;3.50;;
16979;SDS011;42288;52.182;21.156;2023-05-23T13:32:51;4.05;;;3.03;;
16979;SDS011;42288;52.182;21.156;2023-05-23T13:35:18;7.75;;;3.20;;
16979;SDS011;42288;52.182;21.156;2023-05-23T13:37:43;4.88;;;2.90;;
16979;SDS011;42288;52.182;21.156;2023-05-23T13:40:11;4.90;;;2.80;;
16979;SDS011;42288;52.182;21.156;2023-05-23T13:42:41;7.70;;;3.22;;
16979;SDS011;42288;52.182;21.156;2023-05-23T13:45:06;6.45;;;3.10;;
16979;SDS011;42288;52.182;21.156;2023-05-23T13:47:32;4.57;;;3.15;;
16979;SDS011;42288;52.182;21.156;2023-05-23T13:49:58;6.78;;;3.38;;
16979;SDS011;42288;52.182;21.156;2023-05-23T13:52:23;5.60;;;3.35;;
16979;SDS011;42288;52.182;21.156;2023-05-23T13:54:49;19.38;;;4.20;;
16979;SDS011;42288;52.182;21.156;2023-05-23T13:57:15;3.60;;;3.05;;
16979;SDS011;42288;52.182;21.156;2023-05-23T13:59:41;4.97;;;3.30;;
16979;SDS011;42288;52.182;21.156;2023-05-23T14:02:07;4.72;;;3.35;;
16979;SDS011;42288;52.182;21.156;2023-05-23T14:04:32;4.15;;;2.95;;
16979;SDS011;42288;52.182;21.156;2023-05-23T14:06:58;10.43;;;3.70;;
16979;SDS011;42288;52.182;21.156;2023-05-23T14:09:23;8.95;;;3.38;;
16979;SDS011;42288;52.182;21.156;2023-05-23T14:11:49;10.80;;;3.40;;
16979;SDS011;42288;52.182;21.156;2023-05-23T14:14:18;4.82;;;3.33;;
16979;SDS011;42288;52.182;21.156;2023-05-23T14:16:43;10.70;;;3.53;;
16979;SDS011;42288;52.182;21.156;2023-05-23T14:19:09;7.05;;;3.55;;
16979;SDS011;42288;52.182;21.156;2023-05-23T14:21:34;5.40;;;3.10;;
16979;SDS011;42288;52.182;21.156;2023-05-23T14:24:00;10.45;;;3.63;;
16979;SDS011;42288;52.182;21.156;2023-05-23T14:26:26;4.60;;;3.35;;
16979;SDS011;42288;52.182;21.156;2023-05-23T14:28:52;7.90;;;3.58;;
16979;SDS011;42288;52.182;21.156;2023-05-23T14:31:17;6.60;;;3.28;;
16979;SDS011;42288;52.182;21.156;2023-05-23T14:33:44;6.03;;;3.63;;
16979;SDS011;42288;52.182;21.156;2023-05-23T14:36:10;8.10;;;4.20;;
16979;SDS011;42288;52.182;21.156;2023-05-23T14:38:35;4.30;;;3.03;;
16979;SDS011;42288;52.182;21.156;2023-05-23T14:41:03;7.00;;;3.10;;
16979;SDS011;42288;52.182;21.156;2023-05-23T14:43:29;8.13;;;3.42;;
16979;SDS011;42288;52.182;21.156;2023-05-23T14:45:54;6.85;;;3.70;;
16979;SDS011;42288;52.182;21.156;2023-05-23T14:48:20;6.95;;;3.50;;
16979;SDS011;42288;52.182;21.156;2023-05-23T14:50:46;4.57;;;3.45;;
16979;SDS011;42288;52.182;21.156;2023-05-23T14:53:11;13.15;;;3.72;;